createdAt,value
2023-03-06T00:00:24.136Z,68.67
2023-03-06T00:01:24.086Z,67.43
2023-03-06T00:02:24.049Z,69.40
2023-03-06T00:03:24.130Z,68.05
2023-03-06T00:04:24.056Z,68.57
2023-03-06T00:05:24.074Z,68.67
2023-03-06T00:06:24.054Z,67.36
2023-03-06T00:07:24.076Z,67.77
2023-03-06T00:08:23.993Z,67.36
2023-03-06T00:09:23.990Z,69.25
2023-03-06T00:10:24.003Z,69.56
2023-03-06T00:11:23.992Z,72.53
2023-03-06T00:12:23.974Z,69.95
2023-03-06T00:13:23.972Z,68.67
2023-03-06T00:14:23.965Z,68.98
2023-03-06T00:15:23.942Z,69.60
2023-03-06T00:16:23.992Z,68.77
2023-03-06T00:17:23.909Z,69.92
2023-03-06T00:18:23.914Z,68.02
2023-03-06T00:19:23.893Z,67.82
2023-03-06T00:20:23.905Z,68.54
2023-03-06T00:21:23.929Z,66.88
2023-03-06T00:22:23.856Z,67.91
2023-03-06T00:23:23.838Z,68.02
2023-03-06T00:24:23.851Z,69.16
2023-03-06T00:25:23.840Z,67.09
2023-03-06T00:26:23.808Z,65.67
2023-03-06T00:27:23.816Z,67.33
2023-03-06T00:28:23.847Z,67.74
2023-03-06T00:29:23.784Z,68.60
2023-03-06T00:30:23.796Z,69.53
2023-03-06T00:31:23.904Z,67.67
2023-03-06T00:32:23.933Z,67.88
2023-03-06T00:33:23.738Z,67.05
2023-03-06T00:34:23.748Z,67.25
2023-03-06T00:35:23.727Z,67.15
2023-03-06T00:36:23.756Z,67.49
2023-03-06T00:37:23.730Z,66.87
2023-03-06T00:38:23.721Z,67.60
2023-03-06T00:39:23.722Z,67.91
2023-03-06T00:40:23.691Z,68.94
2023-03-06T00:41:23.654Z,70.77
2023-03-06T00:42:23.709Z,67.36
2023-03-06T00:43:23.664Z,67.77
2023-03-06T00:44:23.635Z,67.15
2023-03-06T00:45:23.683Z,67.98
2023-03-06T00:46:23.655Z,67.88
2023-03-06T00:47:23.641Z,68.94
2023-03-06T00:48:23.623Z,70.08
2023-03-06T00:49:23.620Z,68.32
2023-03-06T00:50:23.642Z,69.98
2023-03-06T00:51:23.643Z,69.12
2023-03-06T00:52:23.546Z,69.74
2023-03-06T00:53:23.610Z,70.57
2023-03-06T00:54:23.561Z,70.43
2023-03-06T00:55:23.568Z,70.53
2023-03-06T00:56:23.517Z,70.19
2023-03-06T00:57:23.556Z,68.54
2023-03-06T00:58:23.520Z,67.71
2023-03-06T00:59:23.484Z,66.39
2023-03-06T01:00:23.505Z,68.91
2023-03-06T01:01:23.519Z,67.05
2023-03-06T01:02:23.531Z,68.60
2023-03-06T01:03:23.462Z,69.74
2023-03-06T01:04:23.488Z,68.40
2023-03-06T01:05:23.474Z,69.64
2023-03-06T01:06:23.413Z,70.77
2023-03-06T01:07:23.417Z,70.36
2023-03-06T01:08:23.405Z,72.22
2023-03-06T01:09:23.366Z,71.47
2023-03-06T01:10:23.430Z,70.01
2023-03-06T01:11:23.359Z,70.64
2023-03-06T01:12:23.669Z,71.15
2023-03-06T01:13:23.801Z,71.39
2023-03-06T01:14:23.396Z,71.19
2023-03-06T01:15:23.380Z,71.70
2023-03-06T01:16:23.384Z,72.43
2023-03-06T01:17:23.292Z,71.60
2023-03-06T01:18:23.304Z,72.64
2023-03-06T01:19:23.318Z,72.33
2023-03-06T01:20:23.328Z,72.33
2023-03-06T01:21:23.260Z,72.36
2023-03-06T01:22:23.256Z,72.56
2023-03-06T01:23:23.289Z,72.67
2023-03-06T01:24:23.235Z,73.81
2023-03-06T01:25:23.255Z,73.08
2023-03-06T01:26:23.237Z,73.29
2023-03-06T01:27:23.203Z,73.05
2023-03-06T01:28:23.228Z,72.33
2023-03-06T01:29:23.195Z,72.46
2023-03-06T01:30:23.235Z,72.98
2023-03-06T01:31:23.237Z,72.56
2023-03-06T01:32:23.243Z,72.88
2023-03-06T01:33:23.256Z,73.81
2023-03-06T01:34:23.823Z,73.29
2023-03-06T01:35:23.178Z,72.88
2023-03-06T01:36:23.107Z,72.64
2023-03-06T01:37:23.140Z,72.64
2023-03-06T01:38:23.136Z,71.29
2023-03-06T01:39:23.122Z,72.15
2023-03-06T01:40:23.085Z,73.71
2023-03-06T01:41:23.091Z,73.71
2023-03-06T01:42:23.062Z,72.88
2023-03-06T01:43:23.061Z,72.88
2023-03-06T01:44:23.080Z,73.29
2023-03-06T01:45:23.047Z,73.88
2023-03-06T01:46:23.022Z,73.88
2023-03-06T01:47:23.026Z,71.67
2023-03-06T01:48:23.005Z,70.84
2023-03-06T01:49:23.012Z,71.19
2023-03-06T01:50:23.051Z,71.43
2023-03-06T01:51:22.966Z,72.25
2023-03-06T01:52:23.003Z,73.74
2023-03-06T01:53:22.940Z,72.91
2023-03-06T01:54:22.948Z,73.01
2023-03-06T01:55:22.951Z,73.94
2023-03-06T01:56:23.006Z,74.05
2023-03-06T01:57:22.908Z,74.26
2023-03-06T01:58:22.912Z,74.26
2023-03-06T01:59:22.879Z,74.88
2023-03-06T02:00:22.904Z,74.02
2023-03-06T02:01:22.983Z,74.32
2023-03-06T02:02:22.970Z,75.36
2023-03-06T02:03:22.907Z,73.81
2023-03-06T02:04:22.852Z,75.46
2023-03-06T02:05:22.863Z,74.29
2023-03-06T02:06:22.862Z,73.46
2023-03-06T02:07:22.816Z,73.91
2023-03-06T02:08:22.826Z,73.39
2023-03-06T02:09:22.829Z,73.71
2023-03-06T02:10:22.819Z,74.95
2023-03-06T02:11:22.791Z,73.43
2023-03-06T02:12:22.751Z,73.94
2023-03-06T02:13:22.802Z,74.26
2023-03-06T02:14:23.378Z,75.60
2023-03-06T02:15:22.758Z,76.19
2023-03-06T02:16:22.762Z,74.63
2023-03-06T02:17:22.725Z,75.02
2023-03-06T02:18:22.741Z,73.15
2023-03-06T02:19:22.726Z,72.64
2023-03-06T02:20:22.707Z,74.08
2023-03-06T02:21:22.692Z,72.88
2023-03-06T02:22:22.724Z,72.67
2023-03-06T02:23:22.673Z,74.84
2023-03-06T02:24:22.643Z,74.12
2023-03-06T02:25:22.668Z,74.19
2023-03-06T02:26:22.655Z,73.36
2023-03-06T02:27:22.606Z,73.36
2023-03-06T02:28:22.633Z,73.57
2023-03-06T02:29:22.624Z,73.77
2023-03-06T02:30:22.618Z,73.46
2023-03-06T02:31:22.598Z,72.29
2023-03-06T02:32:22.680Z,73.12
2023-03-06T02:33:22.586Z,71.88
2023-03-06T02:34:22.542Z,72.60
2023-03-06T02:35:22.754Z,72.19
2023-03-06T02:36:22.523Z,72.29
2023-03-06T02:37:22.549Z,71.05
2023-03-06T02:38:22.538Z,70.67
2023-03-06T02:39:22.540Z,71.39
2023-03-06T02:40:22.494Z,71.60
2023-03-06T02:41:22.475Z,71.60
2023-03-06T02:42:22.522Z,72.53
2023-03-06T02:43:22.460Z,71.84
2023-03-06T02:44:22.444Z,72.46
2023-03-06T02:45:22.473Z,73.71
2023-03-06T02:46:22.514Z,74.02
2023-03-06T02:47:22.516Z,72.05
2023-03-06T02:48:22.408Z,72.88
2023-03-06T02:49:22.932Z,72.88
2023-03-06T02:50:22.407Z,72.98
2023-03-06T02:51:22.412Z,73.19
2023-03-06T02:52:22.369Z,73.91
2023-03-06T02:53:22.348Z,73.29
2023-03-06T02:54:22.383Z,74.32
2023-03-06T02:55:22.381Z,73.53
2023-03-06T02:56:22.350Z,74.74
2023-03-06T02:57:22.355Z,72.98
2023-03-06T02:58:22.369Z,73.29
2023-03-06T02:59:22.304Z,72.67
2023-03-06T03:00:22.297Z,73.94
2023-03-06T03:01:22.314Z,75.29
2023-03-06T03:02:22.325Z,73.32
2023-03-06T03:03:22.257Z,74.05
2023-03-06T03:04:22.270Z,73.84
2023-03-06T03:05:22.242Z,73.84
2023-03-06T03:06:22.279Z,73.84
2023-03-06T03:07:22.276Z,72.81
2023-03-06T03:08:22.220Z,73.25
2023-03-06T03:09:22.140Z,74.43
2023-03-06T03:10:22.195Z,75.74
2023-03-06T03:11:22.797Z,75.22
2023-03-06T03:12:22.206Z,74.40
2023-03-06T03:13:22.170Z,74.71
2023-03-06T03:14:22.164Z,75.43
2023-03-06T03:15:22.186Z,75.29
2023-03-06T03:16:22.120Z,75.81
2023-03-06T03:17:22.118Z,74.84
2023-03-06T03:18:22.141Z,75.57
2023-03-06T03:19:22.106Z,73.60
2023-03-06T03:20:22.154Z,74.12
2023-03-06T03:21:22.124Z,74.02
2023-03-06T03:22:22.061Z,75.05
2023-03-06T03:23:22.073Z,73.39
2023-03-06T03:24:22.093Z,72.77
2023-03-06T03:25:22.049Z,73.60
2023-03-06T03:26:22.084Z,73.84
2023-03-06T03:27:22.090Z,73.84
2023-03-06T03:28:22.056Z,73.74
2023-03-06T03:29:22.004Z,74.08
2023-03-06T03:30:21.982Z,75.84
2023-03-06T03:31:22.083Z,75.53
2023-03-06T03:32:22.021Z,75.40
2023-03-06T03:33:21.996Z,75.60
2023-03-06T03:34:21.992Z,76.84
2023-03-06T03:35:22.017Z,75.26
2023-03-06T03:36:21.933Z,74.74
2023-03-06T03:37:21.928Z,74.02
2023-03-06T03:38:22.715Z,74.43
2023-03-06T03:39:21.943Z,74.02
2023-03-06T03:40:21.926Z,73.08
2023-03-06T03:41:21.889Z,74.74
2023-03-06T03:42:21.868Z,75.26
2023-03-06T03:43:21.891Z,75.15
2023-03-06T03:44:21.872Z,74.53
2023-03-06T03:45:21.870Z,73.50
2023-03-06T03:46:21.955Z,74.22
2023-03-06T03:47:21.833Z,73.60
2023-03-06T03:48:22.298Z,74.88
2023-03-06T03:49:21.825Z,75.71
2023-03-06T03:50:21.813Z,75.05
2023-03-06T03:51:21.949Z,74.46
2023-03-06T03:52:21.808Z,74.36
2023-03-06T03:53:21.777Z,74.26
2023-03-06T03:54:21.784Z,75.32
2023-03-06T03:55:21.790Z,75.53
2023-03-06T03:56:21.763Z,76.05
2023-03-06T03:57:21.752Z,76.78
2023-03-06T03:58:21.762Z,76.88
2023-03-06T03:59:21.724Z,77.05
2023-03-06T04:00:21.770Z,76.43
2023-03-06T04:01:21.850Z,75.15
2023-03-06T04:02:21.857Z,74.84
2023-03-06T04:03:21.685Z,73.91
2023-03-06T04:04:21.670Z,75.60
2023-03-06T04:05:21.655Z,75.81
2023-03-06T04:06:21.652Z,76.12
2023-03-06T04:07:21.667Z,74.88
2023-03-06T04:08:21.686Z,75.71
2023-03-06T04:09:21.679Z,75.92
2023-03-06T04:10:21.633Z,75.60
2023-03-06T04:11:21.756Z,76.64
2023-03-06T04:12:21.589Z,77.26
2023-03-06T04:13:21.594Z,76.95
2023-03-06T04:14:21.561Z,76.19
2023-03-06T04:15:21.553Z,76.81
2023-03-06T04:16:21.551Z,75.98
2023-03-06T04:17:21.571Z,76.29
2023-03-06T04:18:21.504Z,74.74
2023-03-06T04:19:21.545Z,75.57
2023-03-06T04:20:21.515Z,75.78
2023-03-06T04:21:21.506Z,75.15
2023-03-06T04:22:21.488Z,75.05
2023-03-06T04:23:21.475Z,76.12
2023-03-06T04:24:21.484Z,75.57
2023-03-06T04:25:21.481Z,75.88
2023-03-06T04:26:21.459Z,76.19
2023-03-06T04:27:21.554Z,75.88
2023-03-06T04:28:21.368Z,75.19
2023-03-06T04:29:21.431Z,76.84
2023-03-06T04:30:21.407Z,76.53
2023-03-06T04:31:21.403Z,76.84
2023-03-06T04:32:21.719Z,76.32
2023-03-06T04:33:21.433Z,76.53
2023-03-06T04:34:21.418Z,77.71
2023-03-06T04:35:21.370Z,77.47
2023-03-06T04:36:21.340Z,76.95
2023-03-06T04:37:21.337Z,76.64
2023-03-06T04:38:21.336Z,76.23
2023-03-06T04:39:21.342Z,75.71
2023-03-06T04:40:21.297Z,76.15
2023-03-06T04:41:21.286Z,77.40
2023-03-06T04:42:21.295Z,76.98
2023-03-06T04:43:21.292Z,76.98
2023-03-06T04:44:21.278Z,77.61
2023-03-06T04:45:21.297Z,77.19
2023-03-06T04:46:21.324Z,76.78
2023-03-06T04:47:21.271Z,77.54
2023-03-06T04:48:21.222Z,78.16
2023-03-06T04:49:21.325Z,78.27
2023-03-06T04:50:21.223Z,77.85
2023-03-06T04:51:21.205Z,78.02
2023-03-06T04:52:21.224Z,77.75
2023-03-06T04:53:21.209Z,78.06
2023-03-06T04:54:21.176Z,78.06
2023-03-06T04:55:21.169Z,78.27
2023-03-06T04:56:21.164Z,79.10
2023-03-06T04:57:21.150Z,78.54
2023-03-06T04:58:21.135Z,78.27
2023-03-06T04:59:21.126Z,78.75
2023-03-06T05:00:21.120Z,78.33
2023-03-06T05:01:21.233Z,78.23
2023-03-06T05:02:21.135Z,78.40
2023-03-06T05:03:21.102Z,78.09
2023-03-06T05:04:21.125Z,77.88
2023-03-06T05:05:21.059Z,77.15
2023-03-06T05:06:21.036Z,77.12
2023-03-06T05:07:21.043Z,75.92
2023-03-06T05:08:21.093Z,76.64
2023-03-06T05:09:21.055Z,77.40
2023-03-06T05:10:21.016Z,77.19
2023-03-06T05:11:21.020Z,77.50
2023-03-06T05:12:20.976Z,77.78
2023-03-06T05:13:20.986Z,76.53
2023-03-06T05:14:21.084Z,77.47
2023-03-06T05:15:20.968Z,76.88
2023-03-06T05:16:20.949Z,76.98
2023-03-06T05:17:20.961Z,77.71
2023-03-06T05:18:20.931Z,77.78
2023-03-06T05:19:20.943Z,76.36
2023-03-06T05:20:21.107Z,76.57
2023-03-06T05:21:20.914Z,76.98
2023-03-06T05:22:21.006Z,77.61
2023-03-06T05:23:20.910Z,78.54
2023-03-06T05:24:20.886Z,77.29
2023-03-06T05:25:20.856Z,76.88
2023-03-06T05:26:20.858Z,77.09
2023-03-06T05:27:20.843Z,77.29
2023-03-06T05:28:20.840Z,78.44
2023-03-06T05:29:20.857Z,78.33
2023-03-06T05:30:20.815Z,77.92
2023-03-06T05:31:20.858Z,79.06
2023-03-06T05:32:20.835Z,77.71
2023-03-06T05:33:20.801Z,77.57
2023-03-06T05:34:20.742Z,76.64
2023-03-06T05:35:20.830Z,76.84
2023-03-06T05:36:20.695Z,77.05
2023-03-06T05:37:20.765Z,76.88
2023-03-06T05:38:20.826Z,77.61
2023-03-06T05:39:20.710Z,77.09
2023-03-06T05:40:20.741Z,76.98
2023-03-06T05:41:20.745Z,77.29
2023-03-06T05:42:20.641Z,77.61
2023-03-06T05:43:20.685Z,78.12
2023-03-06T05:44:20.821Z,78.23
2023-03-06T05:45:20.653Z,77.81
2023-03-06T05:46:20.648Z,77.40
2023-03-06T05:47:20.646Z,78.54
2023-03-06T05:48:20.627Z,77.36
2023-03-06T05:49:20.813Z,77.67
2023-03-06T05:50:20.594Z,77.36
2023-03-06T05:51:20.605Z,77.67
2023-03-06T05:52:20.538Z,77.88
2023-03-06T05:53:20.615Z,77.67
2023-03-06T05:54:20.622Z,77.15
2023-03-06T05:55:20.536Z,76.53
2023-03-06T05:56:20.508Z,77.26
2023-03-06T05:57:20.581Z,77.15
2023-03-06T05:58:20.603Z,76.74
2023-03-06T05:59:20.557Z,76.95
2023-03-06T06:00:20.453Z,77.26
2023-03-06T06:01:20.468Z,75.81
2023-03-06T06:02:20.464Z,77.26
2023-03-06T06:03:20.467Z,77.12
2023-03-06T06:04:20.479Z,76.40
2023-03-06T06:05:20.401Z,75.15
2023-03-06T06:06:20.434Z,76.40
2023-03-06T06:07:20.407Z,77.12
2023-03-06T06:08:20.608Z,77.33
2023-03-06T06:09:20.461Z,76.71
2023-03-06T06:10:20.369Z,76.19
2023-03-06T06:11:20.376Z,75.36
2023-03-06T06:12:20.341Z,76.19
2023-03-06T06:13:20.347Z,76.19
2023-03-06T06:14:20.391Z,75.67
2023-03-06T06:15:20.371Z,77.33
2023-03-06T06:16:20.292Z,75.78
2023-03-06T06:17:20.304Z,74.95
2023-03-06T06:18:20.286Z,75.26
2023-03-06T06:19:20.391Z,75.36
2023-03-06T06:20:20.284Z,75.40
2023-03-06T06:21:20.286Z,75.50
2023-03-06T06:22:20.252Z,75.71
2023-03-06T06:23:20.223Z,75.60
2023-03-06T06:24:20.314Z,76.02
2023-03-06T06:25:20.240Z,76.32
2023-03-06T06:26:20.261Z,75.81
2023-03-06T06:27:20.204Z,76.61
2023-03-06T06:28:20.176Z,76.61
2023-03-06T06:29:20.182Z,77.22
2023-03-06T06:30:20.152Z,76.78
2023-03-06T06:31:20.234Z,76.26
2023-03-06T06:32:20.201Z,74.29
2023-03-06T06:33:20.143Z,74.19
2023-03-06T06:34:20.195Z,75.02
2023-03-06T06:35:20.271Z,75.63
2023-03-06T06:36:20.169Z,75.12
2023-03-06T06:37:20.101Z,76.05
2023-03-06T06:38:20.101Z,74.19
2023-03-06T06:39:20.104Z,75.09
2023-03-06T06:40:20.123Z,73.43
2023-03-06T06:41:46.242Z,72.94
2023-03-06T06:42:31.493Z,73.15
2023-03-06T06:43:20.072Z,74.40
2023-03-06T06:44:20.054Z,75.63
2023-03-06T06:45:20.787Z,74.40
2023-03-06T06:47:05.832Z,74.19
2023-03-06T06:47:24.914Z,74.53
2023-03-06T06:48:20.138Z,75.05
2023-03-06T06:49:20.026Z,74.81
2023-03-06T06:50:20.026Z,75.53
2023-03-06T06:51:19.999Z,76.57
2023-03-06T06:52:20.136Z,75.32
2023-03-06T06:53:19.929Z,73.77
2023-03-06T06:54:19.977Z,74.08
2023-03-06T06:55:20.030Z,74.91
2023-03-06T06:56:19.929Z,75.12
2023-03-06T06:57:19.930Z,75.53
2023-03-06T06:58:19.983Z,74.43
2023-03-06T06:59:19.877Z,75.46
2023-03-06T07:00:19.946Z,75.98
2023-03-06T07:01:19.946Z,75.88
2023-03-06T07:02:19.893Z,75.98
2023-03-06T07:03:19.832Z,75.78
2023-03-06T07:04:19.878Z,74.84
2023-03-06T07:05:21.081Z,76.36
2023-03-06T07:06:19.858Z,75.22
2023-03-06T07:07:19.827Z,74.60
2023-03-06T07:08:19.937Z,75.95
2023-03-06T07:09:19.850Z,75.53
2023-03-06T07:10:21.001Z,74.60
2023-03-06T07:11:19.826Z,75.12
2023-03-06T07:12:19.778Z,75.43
2023-03-06T07:13:19.730Z,75.63
2023-03-06T07:14:19.738Z,75.63
2023-03-06T07:15:19.747Z,74.50
2023-03-06T07:16:19.797Z,74.91
2023-03-06T07:17:19.705Z,75.74
2023-03-06T07:18:19.708Z,75.84
2023-03-06T07:19:19.797Z,75.32
2023-03-06T07:20:19.806Z,75.63
2023-03-06T07:21:19.679Z,76.26
2023-03-06T07:22:19.793Z,75.50
2023-03-06T07:23:19.717Z,75.12
2023-03-06T07:24:19.621Z,76.32
2023-03-06T07:25:19.684Z,74.81
2023-03-06T07:26:19.653Z,74.50
2023-03-06T07:27:19.636Z,75.74
2023-03-06T07:28:19.749Z,76.67
2023-03-06T07:29:19.581Z,76.84
2023-03-06T07:30:19.661Z,74.67
2023-03-06T07:31:19.616Z,76.32
2023-03-06T07:32:19.656Z,76.81
2023-03-06T07:33:19.581Z,74.84
2023-03-06T07:34:19.599Z,73.91
2023-03-06T07:35:20.814Z,73.12
2023-03-06T07:36:19.536Z,74.46
2023-03-06T07:37:19.556Z,74.57
2023-03-06T07:38:19.594Z,75.02
2023-03-06T07:39:19.494Z,74.19
2023-03-06T07:40:19.496Z,73.67
2023-03-06T07:41:22.357Z,75.12
2023-03-06T07:42:19.551Z,75.43
2023-03-06T07:43:19.832Z,76.15
2023-03-06T07:44:19.539Z,75.43
2023-03-06T07:45:19.428Z,75.60
2023-03-06T07:46:19.551Z,73.94
2023-03-06T07:47:19.487Z,75.05
2023-03-06T07:48:19.443Z,74.43
2023-03-06T07:49:19.466Z,73.08
2023-03-06T07:50:19.452Z,72.67
2023-03-06T07:51:19.397Z,73.22
2023-03-06T07:52:19.566Z,73.33
2023-03-06T07:53:19.427Z,73.46
2023-03-06T07:54:19.502Z,74.40
2023-03-06T07:55:19.522Z,75.12
2023-03-06T07:56:19.511Z,76.36
2023-03-06T07:57:19.366Z,76.78
2023-03-06T07:58:19.455Z,75.74
2023-03-06T07:59:19.622Z,77.39
2023-03-06T08:00:19.650Z,77.09
2023-03-06T08:01:19.584Z,77.05
2023-03-06T08:02:19.953Z,76.32
2023-03-06T08:03:19.448Z,76.12
2023-03-06T08:04:19.657Z,75.19
2023-03-06T08:05:19.382Z,76.01
2023-03-06T08:06:19.360Z,75.40
2023-03-06T08:07:19.308Z,75.36
2023-03-06T08:08:19.482Z,74.53
2023-03-06T08:09:19.737Z,75.15
2023-03-06T08:10:19.302Z,74.95
2023-03-06T08:11:19.220Z,75.05
2023-03-06T08:12:19.661Z,74.74
2023-03-06T08:13:19.248Z,74.88
2023-03-06T08:14:19.257Z,75.43
2023-03-06T08:15:19.905Z,76.26
2023-03-06T08:16:19.274Z,77.39
2023-03-06T08:17:19.371Z,79.05
2023-03-06T08:18:19.556Z,78.74
2023-03-06T08:19:19.317Z,77.39
2023-03-06T08:20:19.198Z,77.77
2023-03-06T08:21:19.289Z,77.47
2023-03-06T08:22:19.666Z,76.84
2023-03-06T08:23:19.052Z,76.53
2023-03-06T08:24:19.598Z,76.84
2023-03-06T08:25:19.138Z,76.43
2023-03-06T08:26:19.214Z,76.43
2023-03-06T08:27:19.237Z,77.56
2023-03-06T08:28:19.052Z,77.05
2023-03-06T08:29:19.339Z,75.91
2023-03-06T08:30:19.078Z,75.91
2023-03-06T08:31:19.172Z,76.84
2023-03-06T08:32:19.082Z,77.36
2023-03-06T08:33:19.046Z,77.22
2023-03-06T08:34:19.361Z,75.78
2023-03-06T08:35:19.285Z,77.01
2023-03-06T08:36:18.952Z,76.39
2023-03-06T08:37:18.935Z,77.91
2023-03-06T08:38:18.974Z,77.25
2023-03-06T08:39:18.939Z,75.49
2023-03-06T08:40:18.913Z,73.43
2023-03-06T08:41:20.271Z,73.64
2023-03-06T08:42:18.883Z,74.46
2023-03-06T08:43:18.886Z,72.91
2023-03-06T08:44:18.851Z,74.26
2023-03-06T08:45:18.824Z,73.36
2023-03-06T08:46:18.818Z,73.36
2023-03-06T08:47:18.829Z,75.22
2023-03-06T08:48:18.817Z,73.16
2023-03-06T08:49:18.932Z,73.77
2023-03-06T08:50:18.806Z,73.26
2023-03-06T08:51:18.786Z,73.77
2023-03-06T08:52:18.808Z,71.50
2023-03-06T08:53:18.840Z,70.98
2023-03-06T08:54:18.765Z,71.40
2023-03-06T08:55:18.831Z,72.02
2023-03-06T08:56:18.728Z,72.85
2023-03-06T08:57:18.704Z,69.54
2023-03-06T08:58:18.708Z,71.30
2023-03-06T08:59:18.693Z,70.92
2023-03-06T09:00:18.758Z,70.98
2023-03-06T09:01:18.866Z,72.12
2023-03-06T09:02:18.742Z,72.43
2023-03-06T09:03:18.723Z,69.40
2023-03-06T09:04:18.678Z,69.33
2023-03-06T09:05:18.666Z,70.16
2023-03-06T09:06:18.675Z,69.54
2023-03-06T09:07:18.908Z,69.64
2023-03-06T09:08:20.644Z,70.37
2023-03-06T09:09:18.661Z,68.61
2023-03-06T09:10:18.685Z,69.85
2023-03-06T09:11:18.583Z,70.78
2023-03-06T09:12:18.628Z,69.64
2023-03-06T09:13:18.587Z,71.37
2023-03-06T09:14:18.569Z,69.82
2023-03-06T09:15:20.091Z,71.85
2023-03-06T09:16:18.542Z,70.09
2023-03-06T09:17:18.601Z,69.03
2023-03-06T09:18:18.535Z,67.21
2023-03-06T09:19:18.580Z,68.03
2023-03-06T09:20:18.529Z,67.82
2023-03-06T09:21:18.539Z,68.13
2023-03-06T09:22:18.596Z,68.75
2023-03-06T09:23:18.469Z,67.30
2023-03-06T09:24:18.482Z,68.44
2023-03-06T09:25:18.483Z,67.72
2023-03-06T09:26:18.856Z,67.51
2023-03-06T09:27:18.397Z,67.61
2023-03-06T09:28:18.388Z,67.90
2023-03-06T09:29:18.459Z,66.55
2023-03-06T09:30:18.474Z,65.03
2023-03-06T09:31:18.451Z,65.34
2023-03-06T09:32:18.420Z,64.76
2023-03-06T09:33:18.461Z,66.30
2023-03-06T09:34:18.347Z,66.51
2023-03-06T09:35:18.403Z,67.30
2023-03-06T09:36:18.327Z,65.14
2023-03-06T09:37:18.367Z,66.69
2023-03-06T09:38:18.298Z,65.55
2023-03-06T09:39:18.290Z,64.83
2023-03-06T09:40:18.298Z,66.58
2023-03-06T09:41:18.277Z,66.17
2023-03-06T09:42:18.305Z,64.07
2023-03-06T09:43:18.292Z,64.49
2023-03-06T09:44:18.256Z,64.21
2023-03-06T09:45:18.982Z,66.55
2023-03-06T09:46:18.277Z,64.49
2023-03-06T09:47:18.460Z,63.35
2023-03-06T09:48:18.236Z,65.08
2023-03-06T09:49:18.295Z,64.87
2023-03-06T09:50:18.194Z,64.15
2023-03-06T09:51:18.494Z,62.16
2023-03-06T09:52:18.181Z,62.06
2023-03-06T09:53:18.230Z,61.57
2023-03-06T09:54:18.261Z,62.60
2023-03-06T09:55:18.193Z,62.29
2023-03-06T09:56:18.342Z,62.71
2023-03-06T09:57:18.112Z,64.15
2023-03-06T09:58:18.178Z,64.67
2023-03-06T09:59:18.081Z,62.92
2023-03-06T10:00:18.136Z,61.26
2023-03-06T10:01:18.377Z,62.29
2023-03-06T10:02:18.161Z,63.84
2023-03-06T10:03:18.423Z,62.19
2023-03-06T10:04:18.059Z,60.95
2023-03-06T10:05:18.317Z,61.57
2023-03-06T10:06:18.124Z,61.57
2023-03-06T10:07:18.003Z,64.12
2023-03-06T10:08:17.992Z,62.88
2023-03-06T10:09:18.115Z,61.26
2023-03-06T10:10:18.023Z,62.29
2023-03-06T10:11:18.007Z,61.78
2023-03-06T10:12:17.971Z,62.71
2023-03-06T10:13:17.948Z,63.64
2023-03-06T10:14:18.128Z,63.32
2023-03-06T10:15:17.986Z,61.47
2023-03-06T10:16:18.161Z,61.60
2023-03-06T10:17:17.951Z,62.50
2023-03-06T10:18:17.969Z,62.50
2023-03-06T10:19:17.948Z,62.68
2023-03-06T10:20:17.939Z,62.78
2023-03-06T10:21:19.452Z,61.72
2023-03-06T10:22:17.930Z,61.61
2023-03-06T10:23:17.905Z,61.52
2023-03-06T10:24:17.869Z,62.65
2023-03-06T10:25:17.830Z,60.72
2023-03-06T10:26:18.044Z,62.54
2023-03-06T10:27:17.846Z,61.00
2023-03-06T10:28:17.820Z,59.97
2023-03-06T10:29:17.820Z,61.61
2023-03-06T10:30:17.843Z,61.21
2023-03-06T10:31:18.332Z,59.48
2023-03-06T10:32:18.008Z,60.41
2023-03-06T10:33:17.875Z,60.21
2023-03-06T10:34:17.776Z,60.89
2023-03-06T10:35:17.983Z,61.21
2023-03-06T10:36:17.942Z,60.38
2023-03-06T10:37:17.776Z,59.35
2023-03-06T10:38:17.798Z,59.97
2023-03-06T10:39:17.804Z,61.93
2023-03-06T10:40:17.807Z,60.49
2023-03-06T10:41:17.727Z,61.82
2023-03-06T10:42:17.976Z,60.38
2023-03-06T10:43:17.734Z,58.63
2023-03-06T10:44:17.745Z,59.56
2023-03-06T10:45:17.691Z,59.14
2023-03-06T10:46:17.687Z,60.38
2023-03-06T10:47:17.634Z,59.56
2023-03-06T10:48:17.708Z,60.38
2023-03-06T10:49:17.613Z,60.56
2023-03-06T10:50:17.955Z,58.40
2023-03-06T10:51:19.067Z,58.47
2023-03-06T10:52:17.620Z,57.14
2023-03-06T10:53:17.608Z,57.24
2023-03-06T10:54:17.545Z,58.60
2023-03-06T10:55:17.600Z,57.47
2023-03-06T10:56:17.578Z,57.37
2023-03-06T10:57:17.575Z,57.75
2023-03-06T10:58:17.565Z,57.34
2023-03-06T10:59:17.528Z,58.47
2023-03-06T11:00:19.751Z,58.89
2023-03-06T11:01:17.535Z,58.98
2023-03-06T11:02:17.575Z,57.52
2023-03-06T11:03:17.484Z,57.86
2023-03-06T11:04:17.503Z,59.47
2023-03-06T11:05:17.458Z,57.65
2023-03-06T11:06:17.499Z,57.26
2023-03-06T11:07:17.500Z,57.88
2023-03-06T11:08:18.384Z,58.50
2023-03-06T11:09:17.429Z,57.14
2023-03-06T11:10:17.430Z,56.82
2023-03-06T11:11:28.211Z,55.57
2023-03-06T11:12:17.419Z,57.29
2023-03-06T11:13:17.418Z,55.74
2023-03-06T11:14:17.333Z,55.74
2023-03-06T11:15:17.446Z,56.02
2023-03-06T11:16:17.352Z,56.13
2023-03-06T11:17:17.325Z,54.17
2023-03-06T11:18:17.375Z,55.13
2023-03-06T11:19:17.367Z,56.38
2023-03-06T11:20:18.499Z,55.87
2023-03-06T11:21:17.419Z,55.57
2023-03-06T11:22:17.340Z,57.59
2023-03-06T11:23:17.325Z,54.72
2023-03-06T11:24:17.240Z,55.43
2023-03-06T11:25:17.421Z,53.89
2023-03-06T11:26:17.310Z,53.89
2023-03-06T11:27:17.216Z,53.07
2023-03-06T11:28:17.215Z,52.66
2023-03-06T11:29:17.341Z,53.79
2023-03-06T11:30:17.249Z,54.51
2023-03-06T11:31:17.317Z,54.10
2023-03-06T11:32:17.344Z,53.79
2023-03-06T11:33:18.105Z,54.13
2023-03-06T11:34:17.260Z,55.36
2023-03-06T11:35:17.194Z,54.13
2023-03-06T11:36:17.365Z,54.85
2023-03-06T11:37:17.202Z,53.22
2023-03-06T11:38:17.199Z,53.63
2023-03-06T11:39:17.257Z,53.56
2023-03-06T11:40:17.140Z,53.76
2023-03-06T11:41:17.205Z,54.07
2023-03-06T11:42:17.336Z,54.28
2023-03-06T11:43:17.248Z,54.58
2023-03-06T11:44:17.154Z,55.43
2023-03-06T11:45:17.086Z,58.42
2023-03-06T11:46:17.175Z,54.79
2023-03-06T11:47:17.922Z,54.90
2023-03-06T11:48:17.195Z,54.58
2023-03-06T11:49:17.157Z,55.90
2023-03-06T11:50:18.497Z,55.18
2023-03-06T11:51:17.211Z,57.34
2023-03-06T11:52:17.201Z,57.10
2023-03-06T11:53:17.310Z,54.51
2023-03-06T11:54:17.019Z,53.89
2023-03-06T11:55:17.116Z,54.82
2023-03-06T11:56:17.245Z,53.79
2023-03-06T11:57:17.032Z,54.10
2023-03-06T11:58:16.927Z,52.66
2023-03-06T11:59:17.844Z,53.30
2023-03-06T12:00:17.213Z,53.74
2023-03-06T12:01:16.953Z,54.35
2023-03-06T12:02:18.054Z,54.58
2023-03-06T12:03:16.913Z,54.48
2023-03-06T12:04:16.849Z,54.48
2023-03-06T12:05:17.121Z,54.71
2023-03-06T12:06:16.831Z,54.82
2023-03-06T12:07:16.833Z,55.13
2023-03-06T12:08:28.161Z,56.05
2023-03-06T12:09:16.803Z,55.82
2023-03-06T12:10:17.539Z,55.18
2023-03-06T12:13:16.826Z,53.30
2023-03-06T12:14:17.778Z,52.99
2023-03-06T12:15:16.865Z,53.48
2023-03-06T12:16:16.756Z,53.38
2023-03-06T12:17:16.712Z,52.45
2023-03-06T12:18:16.719Z,53.79
2023-03-06T12:19:16.712Z,54.07
2023-03-06T12:20:16.672Z,53.35
2023-03-06T12:21:16.688Z,53.43
2023-03-06T12:22:16.723Z,53.64
2023-03-06T12:23:16.838Z,53.02
2023-03-06T12:24:17.064Z,52.61
2023-03-06T12:25:17.409Z,52.61
2023-03-06T12:26:16.641Z,52.07
2023-03-06T12:27:16.835Z,52.07
2023-03-06T12:28:16.613Z,51.76
2023-03-06T12:29:16.654Z,51.97
2023-03-06T12:30:16.702Z,50.32
2023-03-06T12:31:16.636Z,50.22
2023-03-06T12:32:16.782Z,50.24
2023-03-06T12:33:17.311Z,51.01
2023-03-06T12:34:16.639Z,51.32
2023-03-06T12:35:16.701Z,51.32
2023-03-06T12:36:16.653Z,51.81
2023-03-06T12:37:16.547Z,50.76
2023-03-06T12:38:16.484Z,50.35
2023-03-06T12:39:16.475Z,50.58
2023-03-06T12:40:16.499Z,51.30
2023-03-06T12:41:17.432Z,50.68
2023-03-06T12:42:23.207Z,50.68
2023-03-06T12:43:16.487Z,50.99
2023-03-06T12:44:16.454Z,50.68
2023-03-06T12:45:16.449Z,50.78
2023-03-06T12:46:16.503Z,49.96
2023-03-06T12:47:16.639Z,49.88
2023-03-06T12:48:16.458Z,50.50
2023-03-06T12:49:26.368Z,51.22
2023-03-06T12:50:16.389Z,50.78
2023-03-06T12:51:16.386Z,50.16
2023-03-06T12:52:18.716Z,50.48
2023-03-06T12:53:16.410Z,52.01
2023-03-06T12:54:16.605Z,51.40